<?xml version="1.0" encoding="utf-8"?>
<gpx xmlns:xsi="http://www.w3.org/2001/XMLSchema-instance" xmlns:xsd="http://www.w3.org/2001/XMLSchema" version="1.1" creator="Shapelink.com" xmlns="http://www.topografix.com/GPX/1/1" xmlns:gpxtpx="http://www.garmin.com/xmlschemas/TrackPointExtension/v1">
  <metadata>
    <name>Sykling 19.36 km, 2012-05-06</name>
    <desc></desc>
    <author><name>Mikael Blom</name></author> 
    <time>2012-05-06T10:18:14Z</time>
  </metadata>
  <trk>
    <name>Sykling 19.36 km, 2012-05-06</name>
    <trkseg>
      <trkpt lat="59.8501193" lon="17.6896824">
        <ele>4.94385</ele>
        <time>2012-05-06T10:18:14Z</time>
      </trkpt>
      <trkpt lat="59.8531129" lon="17.6842552">
        <ele>23.209</ele>
        <time>2012-05-06T10:28:30Z</time>
      </trkpt>
      <trkpt lat="59.8530465" lon="17.6840417">
        <ele>22.7283</ele>
        <time>2012-05-06T10:28:33Z</time>
      </trkpt>
      <trkpt lat="59.8529745" lon="17.6836388">
        <ele>22.2476</ele>
        <time>2012-05-06T10:28:39Z</time>
      </trkpt>
      <trkpt lat="59.8529907" lon="17.6834714">
        <ele>22.2476</ele>
        <time>2012-05-06T10:28:41Z</time>
      </trkpt>
      <trkpt lat="59.8531351" lon="17.6833202">
        <ele>22.7283</ele>
        <time>2012-05-06T10:28:45Z</time>
      </trkpt>
      <trkpt lat="59.8533006" lon="17.6831031">
        <ele>23.209</ele>
        <time>2012-05-06T10:28:50Z</time>
      </trkpt>
      <trkpt lat="59.8534004" lon="17.6829674">
        <ele>23.209</ele>
        <time>2012-05-06T10:28:54Z</time>
      </trkpt>
      <trkpt lat="59.8535609" lon="17.6830926">
        <ele>23.209</ele>
        <time>2012-05-06T10:28:58Z</time>
      </trkpt>
      <trkpt lat="59.8535837" lon="17.6833631">
        <ele>23.209</ele>
        <time>2012-05-06T10:29:01Z</time>
      </trkpt>
      <trkpt lat="59.8536195" lon="17.6837318">
        <ele>23.209</ele>
        <time>2012-05-06T10:29:05Z</time>
      </trkpt>
      <trkpt lat="59.8537362" lon="17.6839355">
        <ele>23.209</ele>
        <time>2012-05-06T10:29:08Z</time>
      </trkpt>
      <trkpt lat="59.8537854" lon="17.6839837">
        <ele>23.209</ele>
        <time>2012-05-06T10:29:09Z</time>
      </trkpt>
      <trkpt lat="59.854198" lon="17.6844198">
        <ele>22.2476</ele>
        <time>2012-05-06T10:29:17Z</time>
      </trkpt>
      <trkpt lat="59.8543168" lon="17.6845424">
        <ele>21.767</ele>
        <time>2012-05-06T10:29:19Z</time>
      </trkpt>
      <trkpt lat="59.8546023" lon="17.684555">
        <ele>19.8444</ele>
        <time>2012-05-06T10:29:23Z</time>
      </trkpt>
      <trkpt lat="59.8547598" lon="17.6844849">
        <ele>18.8831</ele>
        <time>2012-05-06T10:29:25Z</time>
      </trkpt>
      <trkpt lat="59.8550581" lon="17.68443">
        <ele>18.4023</ele>
        <time>2012-05-06T10:29:29Z</time>
      </trkpt>
      <trkpt lat="59.8551457" lon="17.6844611">
        <ele>18.8831</ele>
        <time>2012-05-06T10:29:30Z</time>
      </trkpt>
      <trkpt lat="59.8554409" lon="17.6850482">
        <ele>20.8057</ele>
        <time>2012-05-06T10:29:34Z</time>
      </trkpt>
      <trkpt lat="59.8556334" lon="17.6851855">
        <ele>20.8057</ele>
        <time>2012-05-06T10:29:38Z</time>
      </trkpt>
      <trkpt lat="59.8558299" lon="17.6849427">
        <ele>20.8057</ele>
        <time>2012-05-06T10:29:42Z</time>
      </trkpt>
      <trkpt lat="59.8559209" lon="17.6847735">
        <ele>20.8057</ele>
        <time>2012-05-06T10:29:44Z</time>
      </trkpt>
      <trkpt lat="59.8563236" lon="17.6839644">
        <ele>20.325</ele>
        <time>2012-05-06T10:29:54Z</time>
      </trkpt>
      <trkpt lat="59.8566033" lon="17.6833658">
        <ele>20.8057</ele>
        <time>2012-05-06T10:30:01Z</time>
      </trkpt>
      <trkpt lat="59.8569368" lon="17.6825774">
        <ele>20.325</ele>
        <time>2012-05-06T10:30:09Z</time>
      </trkpt>
      <trkpt lat="59.8573234" lon="17.6820057">
        <ele>18.8831</ele>
        <time>2012-05-06T10:30:16Z</time>
      </trkpt>
      <trkpt lat="59.857441" lon="17.6818905">
        <ele>18.8831</ele>
        <time>2012-05-06T10:30:18Z</time>
      </trkpt>
      <trkpt lat="59.8578362" lon="17.6817625">
        <ele>18.4023</ele>
        <time>2012-05-06T10:30:24Z</time>
      </trkpt>
      <trkpt lat="59.8579605" lon="17.6817327">
        <ele>18.4023</ele>
        <time>2012-05-06T10:30:26Z</time>
      </trkpt>
      <trkpt lat="59.8581455" lon="17.682021">
        <ele>17.4412</ele>
        <time>2012-05-06T10:30:30Z</time>
      </trkpt>
      <trkpt lat="59.8581626" lon="17.6821412">
        <ele>17.4412</ele>
        <time>2012-05-06T10:30:31Z</time>
      </trkpt>
      <trkpt lat="59.8582991" lon="17.6831381">
        <ele>18.4023</ele>
        <time>2012-05-06T10:30:39Z</time>
      </trkpt>
      <trkpt lat="59.8584874" lon="17.6839599">
        <ele>17.9218</ele>
        <time>2012-05-06T10:30:46Z</time>
      </trkpt>
      <trkpt lat="59.8587297" lon="17.6848643">
        <ele>17.4412</ele>
        <time>2012-05-06T10:30:54Z</time>
      </trkpt>
      <trkpt lat="59.8588189" lon="17.6855713">
        <ele>17.9218</ele>
        <time>2012-05-06T10:31:00Z</time>
      </trkpt>
      <trkpt lat="59.8588468" lon="17.6863493">
        <ele>18.4023</ele>
        <time>2012-05-06T10:31:07Z</time>
      </trkpt>
      <trkpt lat="59.8588891" lon="17.6866419">
        <ele>17.9218</ele>
        <time>2012-05-06T10:31:10Z</time>
      </trkpt>
      <trkpt lat="59.858977" lon="17.6867934">
        <ele>17.4412</ele>
        <time>2012-05-06T10:31:13Z</time>
      </trkpt>
      <trkpt lat="59.8590585" lon="17.6867414">
        <ele>17.9218</ele>
        <time>2012-05-06T10:31:15Z</time>
      </trkpt>
      <trkpt lat="59.8591204" lon="17.6866996">
        <ele>17.9218</ele>
        <time>2012-05-06T10:31:17Z</time>
      </trkpt>
      <trkpt lat="59.8591862" lon="17.6867084">
        <ele>17.9218</ele>
        <time>2012-05-06T10:31:21Z</time>
      </trkpt>
      <trkpt lat="59.8592136" lon="17.6866772">
        <ele>17.9218</ele>
        <time>2012-05-06T10:31:23Z</time>
      </trkpt>
      <trkpt lat="59.8592588" lon="17.6866955">
        <ele>18.4023</ele>
        <time>2012-05-06T10:31:27Z</time>
      </trkpt>
      <trkpt lat="59.8592798" lon="17.6866832">
        <ele>18.4023</ele>
        <time>2012-05-06T10:31:28Z</time>
      </trkpt>
      <trkpt lat="59.8594612" lon="17.6865523">
        <ele>17.9218</ele>
        <time>2012-05-06T10:31:33Z</time>
      </trkpt>
      <trkpt lat="59.859588" lon="17.6862303">
        <ele>17.9218</ele>
        <time>2012-05-06T10:31:37Z</time>
      </trkpt>
      <trkpt lat="59.8597944" lon="17.6858636">
        <ele>17.9218</ele>
        <time>2012-05-06T10:31:42Z</time>
      </trkpt>
      <trkpt lat="59.8602144" lon="17.685362">
        <ele>16.4797</ele>
        <time>2012-05-06T10:31:50Z</time>
      </trkpt>
      <trkpt lat="59.8607271" lon="17.684815">
        <ele>18.4023</ele>
        <time>2012-05-06T10:31:59Z</time>
      </trkpt>
      <trkpt lat="59.8612" lon="17.6843655">
        <ele>18.8831</ele>
        <time>2012-05-06T10:32:07Z</time>
      </trkpt>
      <trkpt lat="59.8617042" lon="17.6840029">
        <ele>18.4023</ele>
        <time>2012-05-06T10:32:15Z</time>
      </trkpt>
      <trkpt lat="59.8623641" lon="17.6835227">
        <ele>18.4023</ele>
        <time>2012-05-06T10:32:25Z</time>
      </trkpt>
      <trkpt lat="59.8629876" lon="17.6830478">
        <ele>18.4023</ele>
        <time>2012-05-06T10:32:34Z</time>
      </trkpt>
      <trkpt lat="59.8633933" lon="17.6827555">
        <ele>17.9218</ele>
        <time>2012-05-06T10:32:40Z</time>
      </trkpt>
      <trkpt lat="59.8636965" lon="17.682565">
        <ele>17.9218</ele>
        <time>2012-05-06T10:32:45Z</time>
      </trkpt>
      <trkpt lat="59.8641938" lon="17.6821799">
        <ele>17.4412</ele>
        <time>2012-05-06T10:32:53Z</time>
      </trkpt>
      <trkpt lat="59.8646883" lon="17.6818104">
        <ele>16.9604</ele>
        <time>2012-05-06T10:33:01Z</time>
      </trkpt>
      <trkpt lat="59.8649221" lon="17.6814252">
        <ele>16.9604</ele>
        <time>2012-05-06T10:33:06Z</time>
      </trkpt>
      <trkpt lat="59.8650122" lon="17.6812797">
        <ele>16.9604</ele>
        <time>2012-05-06T10:33:08Z</time>
      </trkpt>
      <trkpt lat="59.8651132" lon="17.6808772">
        <ele>16.9604</ele>
        <time>2012-05-06T10:33:12Z</time>
      </trkpt>
      <trkpt lat="59.8652692" lon="17.6804077">
        <ele>16.9604</ele>
        <time>2012-05-06T10:33:17Z</time>
      </trkpt>
      <trkpt lat="59.8654262" lon="17.6802712">
        <ele>16.4797</ele>
        <time>2012-05-06T10:33:20Z</time>
      </trkpt>
      <trkpt lat="59.8657478" lon="17.6800426">
        <ele>16.4797</ele>
        <time>2012-05-06T10:33:26Z</time>
      </trkpt>
      <trkpt lat="59.8662155" lon="17.6798303">
        <ele>16.9604</ele>
        <time>2012-05-06T10:33:34Z</time>
      </trkpt>
      <trkpt lat="59.8667024" lon="17.6796152">
        <ele>17.4412</ele>
        <time>2012-05-06T10:33:42Z</time>
      </trkpt>
      <trkpt lat="59.8673127" lon="17.6793281">
        <ele>18.4023</ele>
        <time>2012-05-06T10:33:52Z</time>
      </trkpt>
      <trkpt lat="59.8678785" lon="17.6791168">
        <ele>18.4023</ele>
        <time>2012-05-06T10:34:01Z</time>
      </trkpt>
      <trkpt lat="59.8684181" lon="17.6788829">
        <ele>18.8831</ele>
        <time>2012-05-06T10:34:09Z</time>
      </trkpt>
      <trkpt lat="59.8691071" lon="17.6785607">
        <ele>19.3638</ele>
        <time>2012-05-06T10:34:19Z</time>
      </trkpt>
      <trkpt lat="59.869752" lon="17.6782219">
        <ele>20.325</ele>
        <time>2012-05-06T10:34:29Z</time>
      </trkpt>
      <trkpt lat="59.8703653" lon="17.6779161">
        <ele>21.2864</ele>
        <time>2012-05-06T10:34:39Z</time>
      </trkpt>
      <trkpt lat="59.8705281" lon="17.6777732">
        <ele>20.8057</ele>
        <time>2012-05-06T10:34:42Z</time>
      </trkpt>
      <trkpt lat="59.8707951" lon="17.6775976">
        <ele>21.2864</ele>
        <time>2012-05-06T10:34:47Z</time>
      </trkpt>
      <trkpt lat="59.8708983" lon="17.6775519">
        <ele>21.2864</ele>
        <time>2012-05-06T10:34:49Z</time>
      </trkpt>
      <trkpt lat="59.8710953" lon="17.6774884">
        <ele>20.8057</ele>
        <time>2012-05-06T10:34:53Z</time>
      </trkpt>
      <trkpt lat="59.8713488" lon="17.6774744">
        <ele>20.8057</ele>
        <time>2012-05-06T10:34:59Z</time>
      </trkpt>
      <trkpt lat="59.8714293" lon="17.677462">
        <ele>21.2864</ele>
        <time>2012-05-06T10:35:01Z</time>
      </trkpt>
      <trkpt lat="59.8716451" lon="17.6775723">
        <ele>21.767</ele>
        <time>2012-05-06T10:35:06Z</time>
      </trkpt>
      <trkpt lat="59.8717431" lon="17.6775897">
        <ele>21.767</ele>
        <time>2012-05-06T10:35:08Z</time>
      </trkpt>
      <trkpt lat="59.8721694" lon="17.6774407">
        <ele>21.767</ele>
        <time>2012-05-06T10:35:16Z</time>
      </trkpt>
      <trkpt lat="59.8725999" lon="17.6772463">
        <ele>21.767</ele>
        <time>2012-05-06T10:35:23Z</time>
      </trkpt>
      <trkpt lat="59.8731906" lon="17.6769904">
        <ele>22.2476</ele>
        <time>2012-05-06T10:35:32Z</time>
      </trkpt>
      <trkpt lat="59.8738257" lon="17.6767187">
        <ele>22.7283</ele>
        <time>2012-05-06T10:35:42Z</time>
      </trkpt>
      <trkpt lat="59.8742829" lon="17.6764363">
        <ele>23.209</ele>
        <time>2012-05-06T10:35:50Z</time>
      </trkpt>
      <trkpt lat="59.874339" lon="17.6764073">
        <ele>22.7283</ele>
        <time>2012-05-06T10:35:51Z</time>
      </trkpt>
      <trkpt lat="59.8744921" lon="17.6761411">
        <ele>23.209</ele>
        <time>2012-05-06T10:35:55Z</time>
      </trkpt>
      <trkpt lat="59.8745089" lon="17.6760473">
        <ele>23.209</ele>
        <time>2012-05-06T10:35:56Z</time>
      </trkpt>
      <trkpt lat="59.8746556" lon="17.6755614">
        <ele>24.1703</ele>
        <time>2012-05-06T10:36:02Z</time>
      </trkpt>
      <trkpt lat="59.875021" lon="17.675195">
        <ele>22.2476</ele>
        <time>2012-05-06T10:36:09Z</time>
      </trkpt>
      <trkpt lat="59.8754293" lon="17.6748891">
        <ele>22.2476</ele>
        <time>2012-05-06T10:36:15Z</time>
      </trkpt>
      <trkpt lat="59.8756122" lon="17.6745944">
        <ele>24.1703</ele>
        <time>2012-05-06T10:36:19Z</time>
      </trkpt>
      <trkpt lat="59.8758113" lon="17.6740971">
        <ele>26.5736</ele>
        <time>2012-05-06T10:36:26Z</time>
      </trkpt>
      <trkpt lat="59.8760092" lon="17.6736629">
        <ele>27.0543</ele>
        <time>2012-05-06T10:36:33Z</time>
      </trkpt>
      <trkpt lat="59.8761084" lon="17.6734991">
        <ele>27.0543</ele>
        <time>2012-05-06T10:36:36Z</time>
      </trkpt>
      <trkpt lat="59.8762897" lon="17.6730841">
        <ele>27.5349</ele>
        <time>2012-05-06T10:36:42Z</time>
      </trkpt>
      <trkpt lat="59.8764643" lon="17.6728962">
        <ele>27.0543</ele>
        <time>2012-05-06T10:36:46Z</time>
      </trkpt>
      <trkpt lat="59.8765167" lon="17.6728558">
        <ele>27.0543</ele>
        <time>2012-05-06T10:36:47Z</time>
      </trkpt>
      <trkpt lat="59.876727" lon="17.672734">
        <ele>27.0543</ele>
        <time>2012-05-06T10:36:51Z</time>
      </trkpt>
      <trkpt lat="59.8768928" lon="17.6725621">
        <ele>27.5349</ele>
        <time>2012-05-06T10:36:55Z</time>
      </trkpt>
      <trkpt lat="59.8770342" lon="17.67233">
        <ele>28.0155</ele>
        <time>2012-05-06T10:37:00Z</time>
      </trkpt>
      <trkpt lat="59.877161" lon="17.6722314">
        <ele>28.0155</ele>
        <time>2012-05-06T10:37:04Z</time>
      </trkpt>
      <trkpt lat="59.8773202" lon="17.6722513">
        <ele>27.5349</ele>
        <time>2012-05-06T10:37:08Z</time>
      </trkpt>
      <trkpt lat="59.8773963" lon="17.6724761">
        <ele>27.0543</ele>
        <time>2012-05-06T10:37:11Z</time>
      </trkpt>
      <trkpt lat="59.8775351" lon="17.6724567">
        <ele>27.0543</ele>
        <time>2012-05-06T10:37:14Z</time>
      </trkpt>
      <trkpt lat="59.8779261" lon="17.6721394">
        <ele>27.5349</ele>
        <time>2012-05-06T10:37:22Z</time>
      </trkpt>
      <trkpt lat="59.8781244" lon="17.6720337">
        <ele>28.0155</ele>
        <time>2012-05-06T10:37:26Z</time>
      </trkpt>
      <trkpt lat="59.8784292" lon="17.6719637">
        <ele>29.4575</ele>
        <time>2012-05-06T10:37:33Z</time>
      </trkpt>
      <trkpt lat="59.8785244" lon="17.6719602">
        <ele>29.9381</ele>
        <time>2012-05-06T10:37:36Z</time>
      </trkpt>
      <trkpt lat="59.8786048" lon="17.6719581">
        <ele>29.9381</ele>
        <time>2012-05-06T10:37:39Z</time>
      </trkpt>
      <trkpt lat="59.8787115" lon="17.672168">
        <ele>29.4575</ele>
        <time>2012-05-06T10:37:43Z</time>
      </trkpt>
      <trkpt lat="59.8787576" lon="17.6728564">
        <ele>29.4575</ele>
        <time>2012-05-06T10:37:50Z</time>
      </trkpt>
      <trkpt lat="59.8788274" lon="17.673714">
        <ele>28.0155</ele>
        <time>2012-05-06T10:37:57Z</time>
      </trkpt>
      <trkpt lat="59.8789525" lon="17.6749289">
        <ele>26.0929</ele>
        <time>2012-05-06T10:38:05Z</time>
      </trkpt>
      <trkpt lat="59.878966" lon="17.6750865">
        <ele>26.5736</ele>
        <time>2012-05-06T10:38:06Z</time>
      </trkpt>
      <trkpt lat="59.8790064" lon="17.6756468">
        <ele>26.5736</ele>
        <time>2012-05-06T10:38:10Z</time>
      </trkpt>
      <trkpt lat="59.8791234" lon="17.6756886">
        <ele>26.5736</ele>
        <time>2012-05-06T10:38:12Z</time>
      </trkpt>
      <trkpt lat="59.8792317" lon="17.6755464">
        <ele>26.5736</ele>
        <time>2012-05-06T10:38:14Z</time>
      </trkpt>
      <trkpt lat="59.8795643" lon="17.6750113">
        <ele>26.5736</ele>
        <time>2012-05-06T10:38:20Z</time>
      </trkpt>
      <trkpt lat="59.880171" lon="17.6743834">
        <ele>26.5736</ele>
        <time>2012-05-06T10:38:29Z</time>
      </trkpt>
      <trkpt lat="59.8809362" lon="17.6736484">
        <ele>26.5736</ele>
        <time>2012-05-06T10:38:40Z</time>
      </trkpt>
      <trkpt lat="59.8817549" lon="17.6729496">
        <ele>26.5736</ele>
        <time>2012-05-06T10:38:51Z</time>
      </trkpt>
      <trkpt lat="59.8826388" lon="17.6722046">
        <ele>26.0929</ele>
        <time>2012-05-06T10:39:03Z</time>
      </trkpt>
      <trkpt lat="59.8834031" lon="17.6714863">
        <ele>26.0929</ele>
        <time>2012-05-06T10:39:14Z</time>
      </trkpt>
      <trkpt lat="59.8836077" lon="17.6712451">
        <ele>25.6123</ele>
        <time>2012-05-06T10:39:17Z</time>
      </trkpt>
      <trkpt lat="59.8838408" lon="17.6711174">
        <ele>25.6123</ele>
        <time>2012-05-06T10:39:20Z</time>
      </trkpt>
      <trkpt lat="59.8840323" lon="17.6708609">
        <ele>25.6123</ele>
        <time>2012-05-06T10:39:23Z</time>
      </trkpt>
      <trkpt lat="59.8840642" lon="17.6707179">
        <ele>25.1317</ele>
        <time>2012-05-06T10:39:24Z</time>
      </trkpt>
      <trkpt lat="59.8843348" lon="17.6699613">
        <ele>24.651</ele>
        <time>2012-05-06T10:39:30Z</time>
      </trkpt>
      <trkpt lat="59.8846707" lon="17.6691356">
        <ele>24.651</ele>
        <time>2012-05-06T10:39:37Z</time>
      </trkpt>
      <trkpt lat="59.8849255" lon="17.6682616">
        <ele>24.1703</ele>
        <time>2012-05-06T10:39:44Z</time>
      </trkpt>
      <trkpt lat="59.8851507" lon="17.6677561">
        <ele>24.1703</ele>
        <time>2012-05-06T10:39:49Z</time>
      </trkpt>
      <trkpt lat="59.8851793" lon="17.6673867">
        <ele>23.6896</ele>
        <time>2012-05-06T10:39:52Z</time>
      </trkpt>
      <trkpt lat="59.8851588" lon="17.6671306">
        <ele>23.6896</ele>
        <time>2012-05-06T10:39:54Z</time>
      </trkpt>
      <trkpt lat="59.8852187" lon="17.6661917">
        <ele>23.6896</ele>
        <time>2012-05-06T10:40:01Z</time>
      </trkpt>
      <trkpt lat="59.8853016" lon="17.6655276">
        <ele>23.6896</ele>
        <time>2012-05-06T10:40:06Z</time>
      </trkpt>
      <trkpt lat="59.8854827" lon="17.6649955">
        <ele>23.209</ele>
        <time>2012-05-06T10:40:11Z</time>
      </trkpt>
      <trkpt lat="59.8855517" lon="17.6649329">
        <ele>23.209</ele>
        <time>2012-05-06T10:40:13Z</time>
      </trkpt>
      <trkpt lat="59.885615" lon="17.6649053">
        <ele>23.209</ele>
        <time>2012-05-06T10:40:15Z</time>
      </trkpt>
      <trkpt lat="59.8858569" lon="17.6649744">
        <ele>22.7283</ele>
        <time>2012-05-06T10:40:20Z</time>
      </trkpt>
      <trkpt lat="59.8861066" lon="17.6648925">
        <ele>22.2476</ele>
        <time>2012-05-06T10:40:24Z</time>
      </trkpt>
      <trkpt lat="59.8862605" lon="17.6645792">
        <ele>22.2476</ele>
        <time>2012-05-06T10:40:27Z</time>
      </trkpt>
      <trkpt lat="59.8862987" lon="17.6644453">
        <ele>22.2476</ele>
        <time>2012-05-06T10:40:28Z</time>
      </trkpt>
      <trkpt lat="59.8866013" lon="17.6635543">
        <ele>22.2476</ele>
        <time>2012-05-06T10:40:35Z</time>
      </trkpt>
      <trkpt lat="59.8869449" lon="17.6627956">
        <ele>22.7283</ele>
        <time>2012-05-06T10:40:42Z</time>
      </trkpt>
      <trkpt lat="59.8870975" lon="17.6621671">
        <ele>23.209</ele>
        <time>2012-05-06T10:40:47Z</time>
      </trkpt>
      <trkpt lat="59.8871253" lon="17.6619028">
        <ele>23.6896</ele>
        <time>2012-05-06T10:40:49Z</time>
      </trkpt>
      <trkpt lat="59.8871381" lon="17.6616325">
        <ele>23.6896</ele>
        <time>2012-05-06T10:40:51Z</time>
      </trkpt>
      <trkpt lat="59.8872727" lon="17.6611757">
        <ele>23.6896</ele>
        <time>2012-05-06T10:40:55Z</time>
      </trkpt>
      <trkpt lat="59.8873896" lon="17.6610282">
        <ele>23.209</ele>
        <time>2012-05-06T10:40:57Z</time>
      </trkpt>
      <trkpt lat="59.887645" lon="17.6607783">
        <ele>22.7283</ele>
        <time>2012-05-06T10:41:01Z</time>
      </trkpt>
      <trkpt lat="59.8878476" lon="17.6604156">
        <ele>22.2476</ele>
        <time>2012-05-06T10:41:05Z</time>
      </trkpt>
      <trkpt lat="59.8883869" lon="17.6589711">
        <ele>22.7283</ele>
        <time>2012-05-06T10:41:19Z</time>
      </trkpt>
      <trkpt lat="59.888782" lon="17.6579028">
        <ele>22.7283</ele>
        <time>2012-05-06T10:41:29Z</time>
      </trkpt>
      <trkpt lat="59.8892224" lon="17.6567132">
        <ele>23.209</ele>
        <time>2012-05-06T10:41:40Z</time>
      </trkpt>
      <trkpt lat="59.8896441" lon="17.6555703">
        <ele>24.1703</ele>
        <time>2012-05-06T10:41:51Z</time>
      </trkpt>
      <trkpt lat="59.8900431" lon="17.6544898">
        <ele>24.651</ele>
        <time>2012-05-06T10:42:01Z</time>
      </trkpt>
      <trkpt lat="59.8904046" lon="17.6535018">
        <ele>25.1317</ele>
        <time>2012-05-06T10:42:10Z</time>
      </trkpt>
      <trkpt lat="59.8909178" lon="17.6521007">
        <ele>26.0929</ele>
        <time>2012-05-06T10:42:23Z</time>
      </trkpt>
      <trkpt lat="59.8912115" lon="17.6512872">
        <ele>26.5736</ele>
        <time>2012-05-06T10:42:31Z</time>
      </trkpt>
      <trkpt lat="59.8912438" lon="17.6511891">
        <ele>26.5736</ele>
        <time>2012-05-06T10:42:32Z</time>
      </trkpt>
      <trkpt lat="59.8913153" lon="17.6510042">
        <ele>27.0543</ele>
        <time>2012-05-06T10:42:34Z</time>
      </trkpt>
      <trkpt lat="59.8916156" lon="17.650058">
        <ele>27.5349</ele>
        <time>2012-05-06T10:42:44Z</time>
      </trkpt>
      <trkpt lat="59.891799" lon="17.6492504">
        <ele>27.5349</ele>
        <time>2012-05-06T10:42:52Z</time>
      </trkpt>
      <trkpt lat="59.8919125" lon="17.6486167">
        <ele>28.0155</ele>
        <time>2012-05-06T10:42:58Z</time>
      </trkpt>
      <trkpt lat="59.891938" lon="17.6483943">
        <ele>27.5349</ele>
        <time>2012-05-06T10:43:00Z</time>
      </trkpt>
      <trkpt lat="59.8920288" lon="17.6479332">
        <ele>27.5349</ele>
        <time>2012-05-06T10:43:04Z</time>
      </trkpt>
      <trkpt lat="59.8921331" lon="17.6472123">
        <ele>27.0543</ele>
        <time>2012-05-06T10:43:10Z</time>
      </trkpt>
      <trkpt lat="59.8922517" lon="17.6460717">
        <ele>27.0543</ele>
        <time>2012-05-06T10:43:19Z</time>
      </trkpt>
      <trkpt lat="59.8923718" lon="17.6448397">
        <ele>28.0155</ele>
        <time>2012-05-06T10:43:29Z</time>
      </trkpt>
      <trkpt lat="59.8924806" lon="17.6437742">
        <ele>28.0155</ele>
        <time>2012-05-06T10:43:38Z</time>
      </trkpt>
      <trkpt lat="59.8925455" lon="17.6431806">
        <ele>28.0155</ele>
        <time>2012-05-06T10:43:43Z</time>
      </trkpt>
      <trkpt lat="59.8926651" lon="17.6428004">
        <ele>28.0155</ele>
        <time>2012-05-06T10:43:47Z</time>
      </trkpt>
      <trkpt lat="59.8929555" lon="17.6421622">
        <ele>27.5349</ele>
        <time>2012-05-06T10:43:55Z</time>
      </trkpt>
      <trkpt lat="59.8932836" lon="17.6414349">
        <ele>27.5349</ele>
        <time>2012-05-06T10:44:04Z</time>
      </trkpt>
      <trkpt lat="59.8934145" lon="17.6410788">
        <ele>27.5349</ele>
        <time>2012-05-06T10:44:08Z</time>
      </trkpt>
      <trkpt lat="59.8935888" lon="17.6404081">
        <ele>28.4962</ele>
        <time>2012-05-06T10:44:15Z</time>
      </trkpt>
      <trkpt lat="59.8937541" lon="17.6397911">
        <ele>28.4962</ele>
        <time>2012-05-06T10:44:22Z</time>
      </trkpt>
      <trkpt lat="59.8939135" lon="17.6392932">
        <ele>29.4575</ele>
        <time>2012-05-06T10:44:28Z</time>
      </trkpt>
      <trkpt lat="59.894243" lon="17.6386251">
        <ele>30.4188</ele>
        <time>2012-05-06T10:44:37Z</time>
      </trkpt>
      <trkpt lat="59.8943265" lon="17.6384772">
        <ele>29.9381</ele>
        <time>2012-05-06T10:44:39Z</time>
      </trkpt>
      <trkpt lat="59.8944179" lon="17.6383494">
        <ele>30.4188</ele>
        <time>2012-05-06T10:44:41Z</time>
      </trkpt>
      <trkpt lat="59.8945833" lon="17.6380568">
        <ele>30.4188</ele>
        <time>2012-05-06T10:44:45Z</time>
      </trkpt>
      <trkpt lat="59.8947642" lon="17.637617">
        <ele>30.4188</ele>
        <time>2012-05-06T10:44:50Z</time>
      </trkpt>
      <trkpt lat="59.8948273" lon="17.6372197">
        <ele>29.9381</ele>
        <time>2012-05-06T10:44:54Z</time>
      </trkpt>
      <trkpt lat="59.8949444" lon="17.6370235">
        <ele>29.9381</ele>
        <time>2012-05-06T10:44:57Z</time>
      </trkpt>
      <trkpt lat="59.8949957" lon="17.6369856">
        <ele>29.9381</ele>
        <time>2012-05-06T10:44:58Z</time>
      </trkpt>
      <trkpt lat="59.8954837" lon="17.6366573">
        <ele>29.4575</ele>
        <time>2012-05-06T10:45:07Z</time>
      </trkpt>
      <trkpt lat="59.8958987" lon="17.6365296">
        <ele>29.9381</ele>
        <time>2012-05-06T10:45:14Z</time>
      </trkpt>
      <trkpt lat="59.8961476" lon="17.6365823">
        <ele>30.4188</ele>
        <time>2012-05-06T10:45:18Z</time>
      </trkpt>
      <trkpt lat="59.8963752" lon="17.6365137">
        <ele>30.4188</ele>
        <time>2012-05-06T10:45:22Z</time>
      </trkpt>
      <trkpt lat="59.8964336" lon="17.6365209">
        <ele>30.8995</ele>
        <time>2012-05-06T10:45:23Z</time>
      </trkpt>
      <trkpt lat="59.8969194" lon="17.6367133">
        <ele>30.4188</ele>
        <time>2012-05-06T10:45:31Z</time>
      </trkpt>
      <trkpt lat="59.8970407" lon="17.6367727">
        <ele>30.4188</ele>
        <time>2012-05-06T10:45:33Z</time>
      </trkpt>
      <trkpt lat="59.897162" lon="17.6368116">
        <ele>29.9381</ele>
        <time>2012-05-06T10:45:35Z</time>
      </trkpt>
      <trkpt lat="59.8972869" lon="17.6368084">
        <ele>29.9381</ele>
        <time>2012-05-06T10:45:37Z</time>
      </trkpt>
      <trkpt lat="59.8976168" lon="17.6369934">
        <ele>29.4575</ele>
        <time>2012-05-06T10:45:42Z</time>
      </trkpt>
      <trkpt lat="59.8976829" lon="17.6370416">
        <ele>29.4575</ele>
        <time>2012-05-06T10:45:43Z</time>
      </trkpt>
      <trkpt lat="59.8978318" lon="17.6371127">
        <ele>28.4962</ele>
        <time>2012-05-06T10:45:45Z</time>
      </trkpt>
      <trkpt lat="59.898545" lon="17.6376955">
        <ele>26.5736</ele>
        <time>2012-05-06T10:45:54Z</time>
      </trkpt>
      <trkpt lat="59.8990527" lon="17.6381801">
        <ele>26.0929</ele>
        <time>2012-05-06T10:46:01Z</time>
      </trkpt>
      <trkpt lat="59.8997639" lon="17.6388696">
        <ele>25.1317</ele>
        <time>2012-05-06T10:46:11Z</time>
      </trkpt>
      <trkpt lat="59.9003975" lon="17.6395248">
        <ele>23.209</ele>
        <time>2012-05-06T10:46:20Z</time>
      </trkpt>
      <trkpt lat="59.900995" lon="17.6401474">
        <ele>22.7283</ele>
        <time>2012-05-06T10:46:28Z</time>
      </trkpt>
      <trkpt lat="59.9016764" lon="17.6408094">
        <ele>22.2476</ele>
        <time>2012-05-06T10:46:37Z</time>
      </trkpt>
      <trkpt lat="59.9023833" lon="17.6413699">
        <ele>22.2476</ele>
        <time>2012-05-06T10:46:46Z</time>
      </trkpt>
      <trkpt lat="59.9031757" lon="17.6418064">
        <ele>21.767</ele>
        <time>2012-05-06T10:46:56Z</time>
      </trkpt>
      <trkpt lat="59.9034699" lon="17.6419713">
        <ele>22.2476</ele>
        <time>2012-05-06T10:47:00Z</time>
      </trkpt>
      <trkpt lat="59.9037371" lon="17.6420404">
        <ele>22.2476</ele>
        <time>2012-05-06T10:47:04Z</time>
      </trkpt>
      <trkpt lat="59.9044307" lon="17.6424138">
        <ele>20.8057</ele>
        <time>2012-05-06T10:47:14Z</time>
      </trkpt>
      <trkpt lat="59.9048938" lon="17.6427193">
        <ele>20.325</ele>
        <time>2012-05-06T10:47:21Z</time>
      </trkpt>
      <trkpt lat="59.9053916" lon="17.6429423">
        <ele>20.8057</ele>
        <time>2012-05-06T10:47:29Z</time>
      </trkpt>
      <trkpt lat="59.9055195" lon="17.642948">
        <ele>20.8057</ele>
        <time>2012-05-06T10:47:31Z</time>
      </trkpt>
      <trkpt lat="59.9060339" lon="17.6431577">
        <ele>21.2864</ele>
        <time>2012-05-06T10:47:39Z</time>
      </trkpt>
      <trkpt lat="59.9066836" lon="17.6434052">
        <ele>21.767</ele>
        <time>2012-05-06T10:47:49Z</time>
      </trkpt>
      <trkpt lat="59.9073956" lon="17.6435701">
        <ele>23.209</ele>
        <time>2012-05-06T10:48:00Z</time>
      </trkpt>
      <trkpt lat="59.9078755" lon="17.6436466">
        <ele>24.651</ele>
        <time>2012-05-06T10:48:08Z</time>
      </trkpt>
      <trkpt lat="59.9083967" lon="17.6437188">
        <ele>25.1317</ele>
        <time>2012-05-06T10:48:17Z</time>
      </trkpt>
      <trkpt lat="59.9088843" lon="17.643706">
        <ele>24.651</ele>
        <time>2012-05-06T10:48:25Z</time>
      </trkpt>
      <trkpt lat="59.9094563" lon="17.6436222">
        <ele>25.1317</ele>
        <time>2012-05-06T10:48:34Z</time>
      </trkpt>
      <trkpt lat="59.9097796" lon="17.6435504">
        <ele>25.6123</ele>
        <time>2012-05-06T10:48:39Z</time>
      </trkpt>
      <trkpt lat="59.9100833" lon="17.6436255">
        <ele>27.0543</ele>
        <time>2012-05-06T10:48:44Z</time>
      </trkpt>
      <trkpt lat="59.9104189" lon="17.6435861">
        <ele>27.5349</ele>
        <time>2012-05-06T10:48:50Z</time>
      </trkpt>
      <trkpt lat="59.9105956" lon="17.6434938">
        <ele>27.5349</ele>
        <time>2012-05-06T10:48:53Z</time>
      </trkpt>
      <trkpt lat="59.9110106" lon="17.6434044">
        <ele>28.0155</ele>
        <time>2012-05-06T10:49:00Z</time>
      </trkpt>
      <trkpt lat="59.911578" lon="17.6432832">
        <ele>28.4962</ele>
        <time>2012-05-06T10:49:10Z</time>
      </trkpt>
      <trkpt lat="59.9121406" lon="17.6431489">
        <ele>28.0155</ele>
        <time>2012-05-06T10:49:19Z</time>
      </trkpt>
      <trkpt lat="59.9124956" lon="17.6430662">
        <ele>27.0543</ele>
        <time>2012-05-06T10:49:24Z</time>
      </trkpt>
      <trkpt lat="59.9126976" lon="17.6431105">
        <ele>28.0155</ele>
        <time>2012-05-06T10:49:27Z</time>
      </trkpt>
      <trkpt lat="59.9131256" lon="17.6430744">
        <ele>28.4962</ele>
        <time>2012-05-06T10:49:34Z</time>
      </trkpt>
      <trkpt lat="59.9136034" lon="17.6429827">
        <ele>27.5349</ele>
        <time>2012-05-06T10:49:41Z</time>
      </trkpt>
      <trkpt lat="59.9141523" lon="17.6428777">
        <ele>25.6123</ele>
        <time>2012-05-06T10:49:49Z</time>
      </trkpt>
      <trkpt lat="59.9147215" lon="17.6427772">
        <ele>24.651</ele>
        <time>2012-05-06T10:49:57Z</time>
      </trkpt>
      <trkpt lat="59.915099" lon="17.6427056">
        <ele>24.651</ele>
        <time>2012-05-06T10:50:02Z</time>
      </trkpt>
      <trkpt lat="59.9153316" lon="17.6425691">
        <ele>23.6896</ele>
        <time>2012-05-06T10:50:05Z</time>
      </trkpt>
      <trkpt lat="59.9158513" lon="17.642463">
        <ele>24.1703</ele>
        <time>2012-05-06T10:50:11Z</time>
      </trkpt>
      <trkpt lat="59.9164827" lon="17.6424273">
        <ele>25.6123</ele>
        <time>2012-05-06T10:50:19Z</time>
      </trkpt>
      <trkpt lat="59.91711" lon="17.6423071">
        <ele>24.651</ele>
        <time>2012-05-06T10:50:27Z</time>
      </trkpt>
      <trkpt lat="59.917186" lon="17.6422833">
        <ele>24.651</ele>
        <time>2012-05-06T10:50:28Z</time>
      </trkpt>
      <trkpt lat="59.9177037" lon="17.6422756">
        <ele>24.651</ele>
        <time>2012-05-06T10:50:35Z</time>
      </trkpt>
      <trkpt lat="59.9183482" lon="17.6422321">
        <ele>26.0929</ele>
        <time>2012-05-06T10:50:44Z</time>
      </trkpt>
      <trkpt lat="59.9188022" lon="17.6421767">
        <ele>26.5736</ele>
        <time>2012-05-06T10:50:51Z</time>
      </trkpt>
      <trkpt lat="59.9194938" lon="17.6421021">
        <ele>26.0929</ele>
        <time>2012-05-06T10:51:02Z</time>
      </trkpt>
      <trkpt lat="59.9200446" lon="17.6420006">
        <ele>26.0929</ele>
        <time>2012-05-06T10:51:10Z</time>
      </trkpt>
      <trkpt lat="59.9205982" lon="17.6419752">
        <ele>26.0929</ele>
        <time>2012-05-06T10:51:18Z</time>
      </trkpt>
      <trkpt lat="59.9210712" lon="17.641952">
        <ele>26.5736</ele>
        <time>2012-05-06T10:51:25Z</time>
      </trkpt>
      <trkpt lat="59.9216192" lon="17.6418831">
        <ele>26.5736</ele>
        <time>2012-05-06T10:51:34Z</time>
      </trkpt>
      <trkpt lat="59.9220659" lon="17.6418302">
        <ele>26.0929</ele>
        <time>2012-05-06T10:51:41Z</time>
      </trkpt>
      <trkpt lat="59.9229035" lon="17.6417261">
        <ele>26.0929</ele>
        <time>2012-05-06T10:51:53Z</time>
      </trkpt>
      <trkpt lat="59.9235422" lon="17.6416477">
        <ele>25.1317</ele>
        <time>2012-05-06T10:52:01Z</time>
      </trkpt>
      <trkpt lat="59.9243249" lon="17.6415616">
        <ele>24.1703</ele>
        <time>2012-05-06T10:52:10Z</time>
      </trkpt>
      <trkpt lat="59.9250095" lon="17.6414484">
        <ele>24.1703</ele>
        <time>2012-05-06T10:52:18Z</time>
      </trkpt>
      <trkpt lat="59.9257142" lon="17.6414065">
        <ele>23.6896</ele>
        <time>2012-05-06T10:52:26Z</time>
      </trkpt>
      <trkpt lat="59.9267124" lon="17.6412671">
        <ele>23.209</ele>
        <time>2012-05-06T10:52:37Z</time>
      </trkpt>
      <trkpt lat="59.9276795" lon="17.6411812">
        <ele>23.6896</ele>
        <time>2012-05-06T10:52:48Z</time>
      </trkpt>
      <trkpt lat="59.9284328" lon="17.6410943">
        <ele>23.6896</ele>
        <time>2012-05-06T10:52:57Z</time>
      </trkpt>
      <trkpt lat="59.9289243" lon="17.6409992">
        <ele>23.209</ele>
        <time>2012-05-06T10:53:04Z</time>
      </trkpt>
      <trkpt lat="59.9295619" lon="17.6409417">
        <ele>23.6896</ele>
        <time>2012-05-06T10:53:13Z</time>
      </trkpt>
      <trkpt lat="59.9300561" lon="17.64088">
        <ele>23.6896</ele>
        <time>2012-05-06T10:53:20Z</time>
      </trkpt>
      <trkpt lat="59.9306528" lon="17.6408748">
        <ele>24.651</ele>
        <time>2012-05-06T10:53:28Z</time>
      </trkpt>
      <trkpt lat="59.9307212" lon="17.6408599">
        <ele>25.1317</ele>
        <time>2012-05-06T10:53:29Z</time>
      </trkpt>
      <trkpt lat="59.9310724" lon="17.6409567">
        <ele>25.1317</ele>
        <time>2012-05-06T10:53:34Z</time>
      </trkpt>
      <trkpt lat="59.9314971" lon="17.6412734">
        <ele>26.5736</ele>
        <time>2012-05-06T10:53:41Z</time>
      </trkpt>
      <trkpt lat="59.9320785" lon="17.6416923">
        <ele>27.0543</ele>
        <time>2012-05-06T10:53:51Z</time>
      </trkpt>
      <trkpt lat="59.9324523" lon="17.6420455">
        <ele>26.0929</ele>
        <time>2012-05-06T10:53:57Z</time>
      </trkpt>
      <trkpt lat="59.9327068" lon="17.6423248">
        <ele>26.5736</ele>
        <time>2012-05-06T10:54:01Z</time>
      </trkpt>
      <trkpt lat="59.9330843" lon="17.6429126">
        <ele>27.0543</ele>
        <time>2012-05-06T10:54:08Z</time>
      </trkpt>
      <trkpt lat="59.933366" lon="17.6433536">
        <ele>27.0543</ele>
        <time>2012-05-06T10:54:14Z</time>
      </trkpt>
      <trkpt lat="59.9336417" lon="17.6436907">
        <ele>28.4962</ele>
        <time>2012-05-06T10:54:20Z</time>
      </trkpt>
      <trkpt lat="59.9339185" lon="17.6439874">
        <ele>29.9381</ele>
        <time>2012-05-06T10:54:26Z</time>
      </trkpt>
      <trkpt lat="59.9343591" lon="17.6445635">
        <ele>31.8607</ele>
        <time>2012-05-06T10:54:36Z</time>
      </trkpt>
      <trkpt lat="59.9344328" lon="17.6446906">
        <ele>32.3416</ele>
        <time>2012-05-06T10:54:38Z</time>
      </trkpt>
      <trkpt lat="59.934711" lon="17.6450801">
        <ele>33.7834</ele>
        <time>2012-05-06T10:54:45Z</time>
      </trkpt>
      <trkpt lat="59.9351233" lon="17.6455492">
        <ele>33.7834</ele>
        <time>2012-05-06T10:54:54Z</time>
      </trkpt>
      <trkpt lat="59.9354803" lon="17.6459856">
        <ele>34.2642</ele>
        <time>2012-05-06T10:55:01Z</time>
      </trkpt>
      <trkpt lat="59.9358691" lon="17.6464348">
        <ele>35.2255</ele>
        <time>2012-05-06T10:55:08Z</time>
      </trkpt>
      <trkpt lat="59.9363653" lon="17.6470755">
        <ele>35.7061</ele>
        <time>2012-05-06T10:55:17Z</time>
      </trkpt>
      <trkpt lat="59.9367825" lon="17.6476303">
        <ele>35.7061</ele>
        <time>2012-05-06T10:55:24Z</time>
      </trkpt>
      <trkpt lat="59.9372868" lon="17.6482394">
        <ele>35.7061</ele>
        <time>2012-05-06T10:55:32Z</time>
      </trkpt>
      <trkpt lat="59.9375429" lon="17.6487853">
        <ele>36.6675</ele>
        <time>2012-05-06T10:55:37Z</time>
      </trkpt>
      <trkpt lat="59.9377786" lon="17.6493939">
        <ele>35.7061</ele>
        <time>2012-05-06T10:55:42Z</time>
      </trkpt>
      <trkpt lat="59.9381063" lon="17.6503125">
        <ele>34.7449</ele>
        <time>2012-05-06T10:55:49Z</time>
      </trkpt>
      <trkpt lat="59.9384114" lon="17.6510933">
        <ele>33.7834</ele>
        <time>2012-05-06T10:55:55Z</time>
      </trkpt>
      <trkpt lat="59.9387578" lon="17.6521596">
        <ele>34.2642</ele>
        <time>2012-05-06T10:56:03Z</time>
      </trkpt>
      <trkpt lat="59.9390783" lon="17.6533847">
        <ele>34.7449</ele>
        <time>2012-05-06T10:56:12Z</time>
      </trkpt>
      <trkpt lat="59.9393606" lon="17.6547136">
        <ele>34.7449</ele>
        <time>2012-05-06T10:56:21Z</time>
      </trkpt>
      <trkpt lat="59.9396503" lon="17.6561798">
        <ele>34.2642</ele>
        <time>2012-05-06T10:56:31Z</time>
      </trkpt>
      <trkpt lat="59.9399137" lon="17.6574401">
        <ele>33.7834</ele>
        <time>2012-05-06T10:56:39Z</time>
      </trkpt>
      <trkpt lat="59.9402888" lon="17.6592378">
        <ele>31.8607</ele>
        <time>2012-05-06T10:56:50Z</time>
      </trkpt>
      <trkpt lat="59.9403983" lon="17.6598413">
        <ele>31.8607</ele>
        <time>2012-05-06T10:56:54Z</time>
      </trkpt>
      <trkpt lat="59.9405234" lon="17.6605373">
        <ele>31.8607</ele>
        <time>2012-05-06T10:56:59Z</time>
      </trkpt>
      <trkpt lat="59.940425" lon="17.6610114">
        <ele>29.9381</ele>
        <time>2012-05-06T10:57:02Z</time>
      </trkpt>
      <trkpt lat="59.9404008" lon="17.6614913">
        <ele>29.4575</ele>
        <time>2012-05-06T10:57:05Z</time>
      </trkpt>
      <trkpt lat="59.9404783" lon="17.6619042">
        <ele>29.9381</ele>
        <time>2012-05-06T10:57:08Z</time>
      </trkpt>
      <trkpt lat="59.9406469" lon="17.6621429">
        <ele>29.9381</ele>
        <time>2012-05-06T10:57:11Z</time>
      </trkpt>
      <trkpt lat="59.940782" lon="17.6621936">
        <ele>29.9381</ele>
        <time>2012-05-06T10:57:13Z</time>
      </trkpt>
      <trkpt lat="59.9412689" lon="17.6624172">
        <ele>29.4575</ele>
        <time>2012-05-06T10:57:20Z</time>
      </trkpt>
      <trkpt lat="59.9413369" lon="17.6624804">
        <ele>29.4575</ele>
        <time>2012-05-06T10:57:21Z</time>
      </trkpt>
      <trkpt lat="59.9417676" lon="17.6631316">
        <ele>29.9381</ele>
        <time>2012-05-06T10:57:28Z</time>
      </trkpt>
      <trkpt lat="59.9422041" lon="17.663828">
        <ele>29.9381</ele>
        <time>2012-05-06T10:57:35Z</time>
      </trkpt>
      <trkpt lat="59.9427707" lon="17.6645338">
        <ele>29.4575</ele>
        <time>2012-05-06T10:57:43Z</time>
      </trkpt>
      <trkpt lat="59.943343" lon="17.6650738">
        <ele>28.9769</ele>
        <time>2012-05-06T10:57:50Z</time>
      </trkpt>
      <trkpt lat="59.9439839" lon="17.6654928">
        <ele>28.0155</ele>
        <time>2012-05-06T10:57:57Z</time>
      </trkpt>
      <trkpt lat="59.9447438" lon="17.6658155">
        <ele>28.0155</ele>
        <time>2012-05-06T10:58:05Z</time>
      </trkpt>
      <trkpt lat="59.945658" lon="17.6661461">
        <ele>28.0155</ele>
        <time>2012-05-06T10:58:15Z</time>
      </trkpt>
      <trkpt lat="59.9464631" lon="17.6665149">
        <ele>28.0155</ele>
        <time>2012-05-06T10:58:24Z</time>
      </trkpt>
      <trkpt lat="59.9468345" lon="17.6666085">
        <ele>28.0155</ele>
        <time>2012-05-06T10:58:28Z</time>
      </trkpt>
      <trkpt lat="59.9474846" lon="17.6668918">
        <ele>27.5349</ele>
        <time>2012-05-06T10:58:35Z</time>
      </trkpt>
      <trkpt lat="59.9485863" lon="17.667474">
        <ele>27.0543</ele>
        <time>2012-05-06T10:58:47Z</time>
      </trkpt>
      <trkpt lat="59.9497434" lon="17.6681413">
        <ele>25.6123</ele>
        <time>2012-05-06T10:59:00Z</time>
      </trkpt>
      <trkpt lat="59.9503642" lon="17.668316">
        <ele>26.0929</ele>
        <time>2012-05-06T10:59:07Z</time>
      </trkpt>
      <trkpt lat="59.9508668" lon="17.6682673">
        <ele>26.0929</ele>
        <time>2012-05-06T10:59:13Z</time>
      </trkpt>
      <trkpt lat="59.9514373" lon="17.668112">
        <ele>25.6123</ele>
        <time>2012-05-06T10:59:20Z</time>
      </trkpt>
      <trkpt lat="59.9515228" lon="17.6681026">
        <ele>25.1317</ele>
        <time>2012-05-06T10:59:21Z</time>
      </trkpt>
      <trkpt lat="59.9517349" lon="17.668309">
        <ele>24.651</ele>
        <time>2012-05-06T10:59:24Z</time>
      </trkpt>
      <trkpt lat="59.9517758" lon="17.6684513">
        <ele>24.1703</ele>
        <time>2012-05-06T10:59:25Z</time>
      </trkpt>
      <trkpt lat="59.9518338" lon="17.669208">
        <ele>23.209</ele>
        <time>2012-05-06T10:59:30Z</time>
      </trkpt>
      <trkpt lat="59.9517457" lon="17.6705378">
        <ele>22.7283</ele>
        <time>2012-05-06T10:59:39Z</time>
      </trkpt>
      <trkpt lat="59.9517333" lon="17.6708226">
        <ele>23.209</ele>
        <time>2012-05-06T10:59:41Z</time>
      </trkpt>
      <trkpt lat="59.9517974" lon="17.6713717">
        <ele>25.1317</ele>
        <time>2012-05-06T10:59:45Z</time>
      </trkpt>
      <trkpt lat="59.9518171" lon="17.6716461">
        <ele>25.6123</ele>
        <time>2012-05-06T10:59:47Z</time>
      </trkpt>
      <trkpt lat="59.9518166" lon="17.671923">
        <ele>26.0929</ele>
        <time>2012-05-06T10:59:49Z</time>
      </trkpt>
      <trkpt lat="59.9518836" lon="17.6727336">
        <ele>27.0543</ele>
        <time>2012-05-06T10:59:55Z</time>
      </trkpt>
      <trkpt lat="59.9520368" lon="17.6737633">
        <ele>28.4962</ele>
        <time>2012-05-06T11:00:04Z</time>
      </trkpt>
      <trkpt lat="59.9521943" lon="17.6745528">
        <ele>28.9769</ele>
        <time>2012-05-06T11:00:12Z</time>
      </trkpt>
      <trkpt lat="59.9522646" lon="17.6749895">
        <ele>29.9381</ele>
        <time>2012-05-06T11:00:17Z</time>
      </trkpt>
      <trkpt lat="59.9522902" lon="17.6751267">
        <ele>29.9381</ele>
        <time>2012-05-06T11:00:19Z</time>
      </trkpt>
      <trkpt lat="59.9524362" lon="17.6755703">
        <ele>29.4575</ele>
        <time>2012-05-06T11:00:25Z</time>
      </trkpt>
      <trkpt lat="59.9526371" lon="17.6760745">
        <ele>28.4962</ele>
        <time>2012-05-06T11:00:30Z</time>
      </trkpt>
      <trkpt lat="59.9528983" lon="17.6767614">
        <ele>28.0155</ele>
        <time>2012-05-06T11:00:36Z</time>
      </trkpt>
      <trkpt lat="59.9534607" lon="17.6783427">
        <ele>27.5349</ele>
        <time>2012-05-06T11:00:49Z</time>
      </trkpt>
      <trkpt lat="59.9538446" lon="17.6795065">
        <ele>27.0543</ele>
        <time>2012-05-06T11:00:58Z</time>
      </trkpt>
      <trkpt lat="59.9542454" lon="17.6806316">
        <ele>27.0543</ele>
        <time>2012-05-06T11:01:07Z</time>
      </trkpt>
      <trkpt lat="59.9545362" lon="17.6815349">
        <ele>27.5349</ele>
        <time>2012-05-06T11:01:14Z</time>
      </trkpt>
      <trkpt lat="59.9546207" lon="17.6817796">
        <ele>28.0155</ele>
        <time>2012-05-06T11:01:16Z</time>
      </trkpt>
      <trkpt lat="59.9548415" lon="17.6821694">
        <ele>28.0155</ele>
        <time>2012-05-06T11:01:20Z</time>
      </trkpt>
      <trkpt lat="59.9549216" lon="17.6824156">
        <ele>28.0155</ele>
        <time>2012-05-06T11:01:22Z</time>
      </trkpt>
      <trkpt lat="59.9552247" lon="17.6835579">
        <ele>27.0543</ele>
        <time>2012-05-06T11:01:31Z</time>
      </trkpt>
      <trkpt lat="59.9554297" lon="17.6846436">
        <ele>26.0929</ele>
        <time>2012-05-06T11:01:39Z</time>
      </trkpt>
      <trkpt lat="59.9556167" lon="17.6859251">
        <ele>26.5736</ele>
        <time>2012-05-06T11:01:48Z</time>
      </trkpt>
      <trkpt lat="59.9557785" lon="17.6870411">
        <ele>27.5349</ele>
        <time>2012-05-06T11:01:56Z</time>
      </trkpt>
      <trkpt lat="59.9559478" lon="17.6881341">
        <ele>28.0155</ele>
        <time>2012-05-06T11:02:04Z</time>
      </trkpt>
      <trkpt lat="59.9560406" lon="17.6886585">
        <ele>28.0155</ele>
        <time>2012-05-06T11:02:08Z</time>
      </trkpt>
      <trkpt lat="59.956269" lon="17.6896026">
        <ele>28.4962</ele>
        <time>2012-05-06T11:02:16Z</time>
      </trkpt>
      <trkpt lat="59.9565239" lon="17.6905161">
        <ele>28.4962</ele>
        <time>2012-05-06T11:02:24Z</time>
      </trkpt>
      <trkpt lat="59.9568568" lon="17.6915068">
        <ele>25.6123</ele>
        <time>2012-05-06T11:02:32Z</time>
      </trkpt>
      <trkpt lat="59.9571086" lon="17.6922641">
        <ele>23.6896</ele>
        <time>2012-05-06T11:02:38Z</time>
      </trkpt>
      <trkpt lat="59.9576184" lon="17.6937352">
        <ele>24.651</ele>
        <time>2012-05-06T11:02:50Z</time>
      </trkpt>
      <trkpt lat="59.9580555" lon="17.6949691">
        <ele>26.5736</ele>
        <time>2012-05-06T11:03:00Z</time>
      </trkpt>
      <trkpt lat="59.9584794" lon="17.6960571">
        <ele>27.0543</ele>
        <time>2012-05-06T11:03:09Z</time>
      </trkpt>
      <trkpt lat="59.9588013" lon="17.6969956">
        <ele>28.0155</ele>
        <time>2012-05-06T11:03:16Z</time>
      </trkpt>
      <trkpt lat="59.9589626" lon="17.6979182">
        <ele>29.4575</ele>
        <time>2012-05-06T11:03:22Z</time>
      </trkpt>
      <trkpt lat="59.9590026" lon="17.6986092">
        <ele>30.4188</ele>
        <time>2012-05-06T11:03:27Z</time>
      </trkpt>
      <trkpt lat="59.9590495" lon="17.6998026">
        <ele>31.3801</ele>
        <time>2012-05-06T11:03:36Z</time>
      </trkpt>
      <trkpt lat="59.9591719" lon="17.7010366">
        <ele>32.8223</ele>
        <time>2012-05-06T11:03:45Z</time>
      </trkpt>
      <trkpt lat="59.9593106" lon="17.701854">
        <ele>33.3029</ele>
        <time>2012-05-06T11:03:52Z</time>
      </trkpt>
      <trkpt lat="59.9595703" lon="17.7027739">
        <ele>32.8223</ele>
        <time>2012-05-06T11:04:00Z</time>
      </trkpt>
      <trkpt lat="59.9598697" lon="17.7037021">
        <ele>32.3416</ele>
        <time>2012-05-06T11:04:08Z</time>
      </trkpt>
      <trkpt lat="59.9600378" lon="17.7041803">
        <ele>31.3801</ele>
        <time>2012-05-06T11:04:12Z</time>
      </trkpt>
      <trkpt lat="59.9603229" lon="17.704631">
        <ele>31.3801</ele>
        <time>2012-05-06T11:04:17Z</time>
      </trkpt>
      <trkpt lat="59.9607804" lon="17.7052014">
        <ele>31.3801</ele>
        <time>2012-05-06T11:04:24Z</time>
      </trkpt>
      <trkpt lat="59.9612112" lon="17.7058739">
        <ele>31.3801</ele>
        <time>2012-05-06T11:04:31Z</time>
      </trkpt>
      <trkpt lat="59.9616307" lon="17.7065659">
        <ele>31.8607</ele>
        <time>2012-05-06T11:04:38Z</time>
      </trkpt>
      <trkpt lat="59.9619812" lon="17.7068875">
        <ele>32.3416</ele>
        <time>2012-05-06T11:04:43Z</time>
      </trkpt>
      <trkpt lat="59.9625984" lon="17.7071766">
        <ele>32.3416</ele>
        <time>2012-05-06T11:04:51Z</time>
      </trkpt>
      <trkpt lat="59.9631025" lon="17.7072133">
        <ele>31.8607</ele>
        <time>2012-05-06T11:04:57Z</time>
      </trkpt>
      <trkpt lat="59.9639485" lon="17.707246">
        <ele>31.3801</ele>
        <time>2012-05-06T11:05:07Z</time>
      </trkpt>
      <trkpt lat="59.9645468" lon="17.7074169">
        <ele>30.8995</ele>
        <time>2012-05-06T11:05:14Z</time>
      </trkpt>
      <trkpt lat="59.9650429" lon="17.707761">
        <ele>30.4188</ele>
        <time>2012-05-06T11:05:20Z</time>
      </trkpt>
      <trkpt lat="59.9656002" lon="17.7082898">
        <ele>29.9381</ele>
        <time>2012-05-06T11:05:27Z</time>
      </trkpt>
      <trkpt lat="59.9658516" lon="17.7087735">
        <ele>29.4575</ele>
        <time>2012-05-06T11:05:31Z</time>
      </trkpt>
      <trkpt lat="59.9662004" lon="17.7099899">
        <ele>28.4962</ele>
        <time>2012-05-06T11:05:39Z</time>
      </trkpt>
      <trkpt lat="59.966594" lon="17.7114215">
        <ele>28.4962</ele>
        <time>2012-05-06T11:05:49Z</time>
      </trkpt>
      <trkpt lat="59.9668924" lon="17.7122597">
        <ele>29.4575</ele>
        <time>2012-05-06T11:05:56Z</time>
      </trkpt>
      <trkpt lat="59.9671683" lon="17.7131601">
        <ele>28.4962</ele>
        <time>2012-05-06T11:06:03Z</time>
      </trkpt>
      <trkpt lat="59.9673388" lon="17.7141324">
        <ele>26.0929</ele>
        <time>2012-05-06T11:06:09Z</time>
      </trkpt>
      <trkpt lat="59.9675196" lon="17.7154428">
        <ele>23.209</ele>
        <time>2012-05-06T11:06:16Z</time>
      </trkpt>
      <trkpt lat="59.9676859" lon="17.7160967">
        <ele>24.1703</ele>
        <time>2012-05-06T11:06:20Z</time>
      </trkpt>
      <trkpt lat="59.9679435" lon="17.7166624">
        <ele>26.0929</ele>
        <time>2012-05-06T11:06:25Z</time>
      </trkpt>
      <trkpt lat="59.9681631" lon="17.7169658">
        <ele>27.5349</ele>
        <time>2012-05-06T11:06:29Z</time>
      </trkpt>
      <trkpt lat="59.9686127" lon="17.7172855">
        <ele>28.9769</ele>
        <time>2012-05-06T11:06:36Z</time>
      </trkpt>
      <trkpt lat="59.9691051" lon="17.7174566">
        <ele>29.4575</ele>
        <time>2012-05-06T11:06:43Z</time>
      </trkpt>
      <trkpt lat="59.9696237" lon="17.7177241">
        <ele>29.4575</ele>
        <time>2012-05-06T11:06:50Z</time>
      </trkpt>
      <trkpt lat="59.9702388" lon="17.7182392">
        <ele>29.4575</ele>
        <time>2012-05-06T11:06:58Z</time>
      </trkpt>
      <trkpt lat="59.9710384" lon="17.7189696">
        <ele>29.4575</ele>
        <time>2012-05-06T11:07:08Z</time>
      </trkpt>
      <trkpt lat="59.971989" lon="17.7198279">
        <ele>29.4575</ele>
        <time>2012-05-06T11:07:20Z</time>
      </trkpt>
      <trkpt lat="59.9726025" lon="17.7203822">
        <ele>28.9769</ele>
        <time>2012-05-06T11:07:28Z</time>
      </trkpt>
      <trkpt lat="59.9731182" lon="17.7209928">
        <ele>28.9769</ele>
        <time>2012-05-06T11:07:35Z</time>
      </trkpt>
      <trkpt lat="59.9735027" lon="17.7216943">
        <ele>28.9769</ele>
        <time>2012-05-06T11:07:41Z</time>
      </trkpt>
      <trkpt lat="59.9738073" lon="17.7225366">
        <ele>28.9769</ele>
        <time>2012-05-06T11:07:47Z</time>
      </trkpt>
      <trkpt lat="59.9740248" lon="17.7234808">
        <ele>28.9769</ele>
        <time>2012-05-06T11:07:53Z</time>
      </trkpt>
      <trkpt lat="59.9742465" lon="17.7249353">
        <ele>29.4575</ele>
        <time>2012-05-06T11:08:02Z</time>
      </trkpt>
      <trkpt lat="59.9743375" lon="17.7260622">
        <ele>29.9381</ele>
        <time>2012-05-06T11:08:09Z</time>
      </trkpt>
      <trkpt lat="59.974367" lon="17.7271545">
        <ele>28.4962</ele>
        <time>2012-05-06T11:08:16Z</time>
      </trkpt>
      <trkpt lat="59.974402" lon="17.7288164">
        <ele>27.0543</ele>
        <time>2012-05-06T11:08:26Z</time>
      </trkpt>
      <trkpt lat="59.9744033" lon="17.7298344">
        <ele>27.0543</ele>
        <time>2012-05-06T11:08:32Z</time>
      </trkpt>
      <trkpt lat="59.974306" lon="17.7311697">
        <ele>27.0543</ele>
        <time>2012-05-06T11:08:40Z</time>
      </trkpt>
      <trkpt lat="59.9743023" lon="17.7323473">
        <ele>27.0543</ele>
        <time>2012-05-06T11:08:47Z</time>
      </trkpt>
      <trkpt lat="59.9742911" lon="17.733578">
        <ele>26.5736</ele>
        <time>2012-05-06T11:08:54Z</time>
      </trkpt>
      <trkpt lat="59.9742599" lon="17.7347331">
        <ele>26.5736</ele>
        <time>2012-05-06T11:09:01Z</time>
      </trkpt>
      <trkpt lat="59.974335" lon="17.7356302">
        <ele>27.0543</ele>
        <time>2012-05-06T11:09:07Z</time>
      </trkpt>
      <trkpt lat="59.9745014" lon="17.7364452">
        <ele>27.5349</ele>
        <time>2012-05-06T11:09:13Z</time>
      </trkpt>
      <trkpt lat="59.9747511" lon="17.7372125">
        <ele>28.0155</ele>
        <time>2012-05-06T11:09:19Z</time>
      </trkpt>
      <trkpt lat="59.9750643" lon="17.737864">
        <ele>28.4962</ele>
        <time>2012-05-06T11:09:25Z</time>
      </trkpt>
      <trkpt lat="59.9755892" lon="17.7387688">
        <ele>28.9769</ele>
        <time>2012-05-06T11:09:34Z</time>
      </trkpt>
      <trkpt lat="59.976029" lon="17.7395205">
        <ele>30.4188</ele>
        <time>2012-05-06T11:09:42Z</time>
      </trkpt>
      <trkpt lat="59.9761677" lon="17.7397112">
        <ele>31.8607</ele>
        <time>2012-05-06T11:09:45Z</time>
      </trkpt>
      <trkpt lat="59.9763781" lon="17.7397604">
        <ele>32.8223</ele>
        <time>2012-05-06T11:09:50Z</time>
      </trkpt>
      <trkpt lat="59.9764201" lon="17.7397248">
        <ele>32.8223</ele>
        <time>2012-05-06T11:09:51Z</time>
      </trkpt>
      <trkpt lat="59.9767849" lon="17.7394285">
        <ele>33.3029</ele>
        <time>2012-05-06T11:09:59Z</time>
      </trkpt>
      <trkpt lat="59.977136" lon="17.7392455">
        <ele>35.7061</ele>
        <time>2012-05-06T11:10:07Z</time>
      </trkpt>
      <trkpt lat="59.9775127" lon="17.7390517">
        <ele>36.1868</ele>
        <time>2012-05-06T11:10:16Z</time>
      </trkpt>
      <trkpt lat="59.9775523" lon="17.7390395">
        <ele>36.6675</ele>
        <time>2012-05-06T11:10:17Z</time>
      </trkpt>
      <trkpt lat="59.9779136" lon="17.7391308">
        <ele>39.5513</ele>
        <time>2012-05-06T11:10:26Z</time>
      </trkpt>
      <trkpt lat="59.9782208" lon="17.7392682">
        <ele>41.474</ele>
        <time>2012-05-06T11:10:33Z</time>
      </trkpt>
      <trkpt lat="59.9785884" lon="17.739331">
        <ele>39.5513</ele>
        <time>2012-05-06T11:10:40Z</time>
      </trkpt>
    </trkseg>
  </trk>
</gpx>